Latest Weather Observations for Kingfish B

IDV60801

Issued at 2:02 pm EDT Sunday 20 October 2019 (issued every 10 minutes, with the page automatically refreshed every 10 minutes)

About weather observations | Map of weather stations | Latest weather observations for VIC | Other Formats
Station Details ID: 400139 Name: KINGFISH B (PLATFORM) Lat: -38.60 Lon: 148.19 Height: 31.4 m
Data from the previous 72 hours. | See also: Recent months for locations in Victoria
Date/Time
EDT
Temp
°C
App
Temp
°C
Dew
Point
°C
Rel
Hum
%
Delta-T
°C
Wind Press
QNH
hPa
Press
MSL
hPa
Rain since
9am
mm
Dir  Spd
km/h
Gust
km/h
Spd
kts
Gust
kts
20/01:40pm 15.1 5.2 8.4 64 3.4 WSW 50 61 27 33 1021.2 - -
20/01:30pm 15.0 5.2 8.6 65 3.2 WSW 50 59 27 32 1021.1 - -
20/01:20pm 14.7 5.7 8.8 68 3.0 WSW 46 63 25 34 1021.2 - -
20/01:10pm 14.7 6.1 8.8 68 3.0 WSW 44 54 24 29 1021.2 - -
20/01:00pm 14.5 5.9 8.7 68 2.9 WSW 44 52 24 28 1021.3 - -
20/12:50pm 14.2 5.1 8.4 68 2.9 WSW 46 59 25 32 1021.1 - -
20/12:40pm 13.9 5.2 8.3 69 2.8 WSW 44 57 24 31 1021.0 - -
20/12:30pm 13.5 3.1 7.9 69 2.8 WSW 52 61 28 33 1020.9 - -
20/12:20pm 13.7 2.6 7.9 68 2.9 WSW 56 65 30 35 1020.6 - -
20/12:10pm 14.1 4.5 8.0 66 3.0 WSW 48 61 26 33 1020.7 - -
20/12:00pm 14.0 3.7 8.0 67 3.0 WSW 52 61 28 33 1020.6 - -
20/11:50am 13.6 2.9 7.9 68 2.8 WSW 54 65 29 35 1020.5 - -
20/11:40am 13.8 4.7 8.4 70 2.7 WSW 46 56 25 30 1020.6 - -
20/11:30am 13.6 4.5 8.4 71 2.6 WSW 46 54 25 29 1020.4 - -
20/11:20am 13.5 4.4 8.4 71 2.5 WSW 46 56 25 30 1020.5 - -
20/11:10am 13.7 5.0 8.5 71 2.6 WSW 44 56 24 30 1020.5 - -
20/11:00am 13.9 5.4 8.5 70 2.7 WSW 43 54 23 29 1020.6 - -
20/10:50am 13.9 4.8 8.5 70 2.7 WSW 46 54 25 29 1020.5 - -
20/10:30am 13.6 4.9 8.6 72 2.5 WSW 44 56 24 30 1020.3 - -
20/10:10am 13.5 4.9 8.8 73 2.4 WSW 44 52 24 28 1020.3 - -
20/10:00am 13.1 4.6 8.6 74 2.3 WSW 43 52 23 28 1020.4 - -
20/09:40am 12.8 3.4 8.6 75 2.1 WSW 48 56 26 30 1019.9 - -
20/09:30am 12.8 3.4 8.6 75 2.1 WSW 48 61 26 33 1019.8 - -
20/09:00am 12.3 3.8 8.5 77 1.9 WSW 43 50 23 27 1019.4 - -
20/08:50am 12.1 3.9 8.2 77 1.9 WSW 41 50 22 27 1019.3 - -
20/08:00am 12.1 2.1 7.9 75 2.1 WSW 50 61 27 33 1018.6 - -
20/07:50am 12.1 2.5 7.9 75 2.1 WSW 48 57 26 31 1018.7 - -
20/07:40am 12.0 1.6 7.7 75 2.1 WSW 52 65 28 35 1018.5 - -
20/07:30am 12.1 1.4 7.9 75 2.1 WSW 54 65 29 35 1018.4 - -
20/07:20am 12.1 1.7 7.8 75 2.1 WSW 52 63 28 34 1018.3 - -
20/07:00am 12.2 2.5 7.7 74 2.2 WSW 48 57 26 31 1018.3 - -
20/06:40am 12.1 2.8 7.6 74 2.2 W 46 57 25 31 1018.1 - -
20/06:30am 12.0 2.7 7.4 73 2.2 W 46 54 25 29 1018.0 - -
20/06:10am 11.9 1.8 7.4 74 2.2 W 50 59 27 32 1017.9 - -
20/06:00am 11.9 1.8 7.4 74 2.2 W 50 61 27 33 1017.7 - -
20/05:50am 12.1 1.6 7.5 73 2.2 W 52 63 28 34 1017.6 - -
20/05:40am 12.1 2.4 7.5 73 2.2 W 48 61 26 33 1017.5 - -
20/05:30am 12.1 2.8 7.5 73 2.2 W 46 57 25 31 1017.5 - -
20/05:20am 12.1 2.4 7.4 73 2.3 WSW 48 57 26 31 1017.3 - -
20/05:10am 12.0 2.3 7.4 73 2.2 W 48 59 26 32 1017.3 - -
20/05:00am 12.0 1.5 7.3 73 2.3 W 52 59 28 32 1017.2 - -
20/04:50am 12.1 2.4 7.4 73 2.3 W 48 54 26 29 1017.1 - -
20/04:40am 12.2 2.5 7.4 72 2.3 WSW 48 57 26 31 1016.9 - -
20/04:30am 12.2 1.7 7.4 72 2.3 WSW 52 65 28 35 1016.7 - -
20/04:00am 12.0 1.5 7.3 73 2.3 WSW 52 61 28 33 1016.7 - -
20/03:30am 12.0 1.1 7.2 72 2.3 WSW 54 63 29 34 1016.6 - -
20/03:20am 12.0 1.5 7.2 72 2.3 W 52 61 28 33 1016.7 - -
20/03:10am 11.9 0.6 7.1 72 2.3 WSW 56 65 30 35 1016.6 - -
20/02:30am 12.0 1.4 7.0 71 2.4 W 52 59 28 32 1016.8 - -
20/02:20am 12.0 1.4 7.1 72 2.4 W 52 63 28 34 1016.8 - -
20/01:30am 12.1 1.1 7.0 71 2.4 WSW 54 67 29 36 1016.9 - -
20/01:10am 12.0 0.6 6.9 71 2.4 WSW 56 69 30 37 1016.8 - -
20/01:00am 12.0 1.4 7.0 71 2.4 W 52 63 28 34 1017.0 - -
20/12:40am 12.0 1.8 7.0 71 2.4 W 50 59 27 32 1017.2 - -
20/12:20am 12.0 1.4 7.0 71 2.4 W 52 61 28 33 1017.0 - -
20/12:10am 12.0 3.0 7.1 72 2.4 W 44 59 24 32 1017.3 - -
20/12:00am 11.9 1.3 6.9 71 2.4 W 52 63 28 34 1017.2 - -
 
Date/Time
EDT
Temp
°C
App
Temp
°C
Dew
Point
°C
Rel
Hum
%
Delta-T
°C
Wind Press
QNH
hPa
Press
MSL
hPa
Rain since
9am
mm
Dir  Spd
km/h
Gust
km/h
Spd
kts
Gust
kts
19/11:50pm 11.9 2.8 6.8 71 2.4 W 44 56 24 30 1017.3 - -
19/11:40pm 11.8 1.9 6.7 71 2.4 W 48 56 26 30 1017.3 - -
19/11:30pm 11.8 1.9 6.7 71 2.4 WSW 48 57 26 31 1017.2 - -
19/11:20pm 11.9 1.6 6.7 70 2.5 WSW 50 59 27 32 1017.2 - -
19/11:10pm 11.8 1.2 6.7 71 2.4 WSW 52 63 28 34 1017.1 - -
19/10:50pm 12.1 2.2 6.8 70 2.5 W 48 63 26 34 1017.3 - -
19/10:40pm 12.0 1.8 6.8 70 2.5 W 50 57 27 31 1017.2 - -
19/10:30pm 12.0 1.7 6.7 70 2.5 W 50 57 27 31 1017.0 - -
19/10:20pm 12.0 1.8 6.8 70 2.5 W 50 57 27 31 1017.0 - -
19/10:10pm 12.1 2.3 6.9 70 2.5 W 48 59 26 32 1016.8 - -
19/09:50pm 12.1 2.3 6.9 70 2.5 W 48 56 26 30 1016.9 - -
19/09:40pm 12.1 2.3 6.9 70 2.5 W 48 56 26 30 1016.8 - -
19/09:20pm 11.7 2.2 6.6 71 2.4 W 46 54 25 29 1016.7 - -
19/09:10pm 11.3 2.2 6.1 70 2.4 W 43 52 23 28 1016.6 - -
19/08:50pm 11.7 0.0 6.2 69 2.6 WSW 57 78 31 42 1016.0 - -
19/08:40pm 12.3 2.4 6.8 69 2.6 WSW 48 63 26 34 1016.0 - -
19/08:30pm 12.3 2.0 6.7 68 2.7 WSW 50 59 27 32 1015.8 - -
19/08:10pm 12.4 1.3 6.5 67 2.8 W 54 61 29 33 1015.4 - -
19/07:30pm 12.6 0.2 6.3 65 3.0 WSW 61 72 33 39 1014.4 - -
19/07:20pm 12.6 1.5 6.3 65 3.0 WSW 54 65 29 35 1014.4 - -
19/07:00pm 12.7 2.4 6.5 66 3.0 W 50 59 27 32 1014.3 - -
19/06:50pm 12.9 3.0 6.7 66 3.0 W 48 59 26 32 1014.2 - -
19/06:40pm 13.0 1.6 6.5 64 3.1 WSW 56 65 30 35 1013.7 - -
19/06:30pm 12.9 1.2 6.2 64 3.2 WSW 57 67 31 36 1013.6 - -
19/05:10pm 12.9 2.9 6.1 63 3.2 WSW 48 57 26 31 1012.9 - -
19/04:50pm 12.8 2.8 6.2 64 3.1 WSW 48 57 26 31 1012.8 - -
19/04:40pm 12.6 2.2 6.0 64 3.1 WSW 50 59 27 32 1012.7 - -
19/03:40pm 13.1 2.9 5.3 59 3.6 WSW 48 57 26 31 1012.3 - -
19/03:30pm 12.9 2.8 5.9 62 3.3 WSW 48 57 26 31 1012.3 - -
19/03:20pm 12.6 2.5 5.8 63 3.2 WSW 48 56 26 30 1012.3 - -
19/02:50pm 12.6 3.5 6.1 64 3.1 WSW 43 50 23 27 1012.7 - -
19/02:40pm 12.3 3.0 5.9 65 3.0 WSW 44 56 24 30 1012.6 - -
19/02:30pm 12.1 3.0 6.0 66 2.9 WSW 43 54 23 29 1012.7 - -
19/02:20pm 12.2 2.9 6.0 66 2.9 SW 44 50 24 27 1012.8 - -
19/02:10pm 13.0 3.9 5.7 61 3.4 SW 43 57 23 31 1012.8 - -
19/02:00pm 13.0 5.0 5.6 61 3.5 WSW 37 44 20 24 1012.6 - -
19/01:40pm 12.7 4.2 5.2 60 3.5 WSW 39 48 21 26 1012.5 - -
19/01:20pm 12.6 2.3 4.8 59 3.6 WSW 48 56 26 30 1012.4 - -
19/01:10pm 12.7 2.4 4.8 58 3.6 WSW 48 57 26 31 1012.4 - -
19/01:00pm 13.1 2.8 4.8 57 3.8 WSW 48 57 26 31 1012.3 - -
19/12:50pm 13.0 1.6 4.9 58 3.7 WSW 54 61 29 33 1012.2 - -
19/12:30pm 12.7 1.0 5.4 61 3.4 WSW 56 63 30 34 1012.0 - -
19/12:20pm 12.4 0.7 5.5 63 3.2 WSW 56 63 30 34 1012.0 - -
19/12:10pm 12.8 1.1 5.5 61 3.4 WSW 56 69 30 37 1012.0 - -
19/12:00pm 13.1 3.6 5.1 58 3.7 WSW 44 54 24 29 1011.9 - -
19/11:50am 12.8 2.9 4.8 58 3.7 WSW 46 54 25 29 1011.9 - -
19/11:40am 12.3 3.0 5.0 61 3.4 WSW 43 52 23 28 1012.0 - -
19/11:20am 12.9 1.2 5.5 60 3.5 WSW 56 70 30 38 1011.9 - -
19/11:10am 13.6 3.8 5.4 57 3.8 WSW 46 56 25 30 1011.8 - -
19/11:00am 13.8 3.6 5.1 55 4.1 WSW 48 56 26 30 1011.8 - -
19/10:30am 13.6 3.4 5.3 57 3.9 WSW 48 56 26 30 1011.6 - -
19/10:20am 13.7 2.8 5.5 57 3.9 WSW 52 59 28 32 1011.3 - -
19/10:10am 13.7 2.8 5.7 58 3.8 WSW 52 61 28 33 1011.2 - -
19/10:00am 13.7 2.8 5.7 58 3.8 WSW 52 59 28 32 1011.2 - -
19/09:40am 13.8 2.2 5.9 59 3.8 WSW 56 63 30 34 1010.7 - -
19/09:30am 13.4 1.8 5.9 60 3.6 WSW 56 63 30 34 1010.6 - -
19/09:10am 13.2 1.7 6.1 62 3.4 WSW 56 63 30 34 1010.6 - -
19/09:00am 13.4 1.7 6.2 61 3.4 WSW 57 67 31 36 1010.4 - -
19/08:40am 13.8 3.2 7.1 64 3.3 WSW 52 59 28 32 1010.5 - -
19/07:50am 11.8 3.2 6.7 71 2.4 WSW 41 48 22 26 1010.8 - -
19/07:40am 11.3 2.7 6.4 72 2.3 WSW 41 48 22 26 1010.7 - -
19/07:20am 11.5 3.3 6.6 72 2.3 SW 39 46 21 25 1010.8 - -
19/07:10am 11.6 3.8 6.7 72 2.3 SW 37 43 20 23 1010.9 - -
19/06:40am 11.7 3.2 6.8 72 2.3 WSW 41 46 22 25 1009.9 - -
19/06:10am 11.4 3.3 6.8 73 2.2 WSW 39 48 21 26 1009.5 - -
19/05:50am 11.6 3.9 7.0 73 2.2 SW 37 44 20 24 1009.5 - -
19/05:40am 11.7 4.4 7.2 74 2.2 SW 35 43 19 23 1009.6 - -
19/05:20am 12.0 3.6 7.4 73 2.2 SW 41 50 22 27 1009.7 - -
19/05:10am 12.3 3.4 7.6 73 2.3 SW 44 54 24 29 1009.4 - -
19/05:00am 12.3 3.4 7.5 72 2.3 WSW 44 56 24 30 1009.0 - -
19/04:50am 12.2 3.8 7.5 73 2.3 WSW 41 54 22 29 1009.2 - -
19/04:40am 12.2 4.2 7.5 73 2.3 WSW 39 46 21 25 1009.3 - -
19/04:20am 12.4 4.5 7.9 74 2.2 WSW 39 48 21 26 1009.2 - -
19/04:10am 12.4 4.9 7.9 74 2.2 WSW 37 43 20 23 1009.2 - -
19/04:00am 12.2 5.0 7.7 74 2.2 WSW 35 41 19 22 1009.1 - -
19/03:50am 12.2 3.9 7.6 73 2.2 SW 41 46 22 25 1009.0 - -
19/03:40am 12.3 3.6 7.7 73 2.2 SW 43 48 23 26 1009.0 - -
19/03:30am 12.5 3.9 8.0 74 2.2 SW 43 50 23 27 1009.1 - -
19/03:20am 12.5 3.3 8.0 74 2.2 SW 46 54 25 29 1008.9 - -
19/03:10am 12.6 3.0 8.0 73 2.3 SW 48 56 26 30 1009.1 - -
19/03:00am 12.5 2.9 8.0 74 2.2 WSW 48 56 26 30 1009.1 - -
19/02:50am 12.5 3.3 8.0 74 2.2 WSW 46 54 25 29 1009.2 - -
19/02:40am 12.5 3.9 8.0 74 2.2 WSW 43 56 23 30 1009.3 - -
19/02:30am 12.5 3.7 8.1 74 2.2 WSW 44 57 24 31 1009.4 - -
19/02:20am 12.5 4.6 8.0 74 2.2 WSW 39 48 21 26 1009.7 - -
19/02:10am 12.6 3.4 8.1 74 2.2 WSW 46 54 25 29 1009.8 - -
19/02:00am 12.6 3.8 8.0 73 2.3 SW 44 54 24 29 1009.9 - -
19/01:50am 12.7 3.9 8.1 73 2.3 WSW 44 54 24 29 1010.0 - -
19/01:40am 12.6 3.8 7.9 73 2.3 WSW 44 54 24 29 1010.0 - -
19/01:30am 12.6 4.8 8.1 74 2.2 WSW 39 54 21 29 1010.1 - -
19/01:20am 12.7 5.3 8.2 74 2.2 WSW 37 44 20 24 1010.2 - -
19/01:10am 12.7 5.2 8.1 73 2.3 WSW 37 44 20 24 1010.3 - -
19/01:00am 12.7 4.5 8.0 73 2.3 SW 41 48 22 26 1010.3 - -
19/12:50am 12.8 5.4 8.3 74 2.2 SW 37 46 20 25 1010.4 - -
19/12:40am 13.0 5.3 8.5 74 2.2 SW 39 54 21 29 1010.6 - -
19/12:30am 13.0 5.3 8.5 74 2.2 SW 39 46 21 25 1010.8 - -
19/12:20am 13.0 5.2 8.4 73 2.3 SW 39 48 21 26 1010.9 - -
19/12:10am 13.0 5.3 8.5 74 2.2 SW 39 48 21 26 1011.0 - -
19/12:00am 13.1 4.6 8.6 74 2.3 SW 43 52 23 28 1010.6 - -
 
Date/Time
EDT
Temp
°C
App
Temp
°C
Dew
Point
°C
Rel
Hum
%
Delta-T
°C
Wind Press
QNH
hPa
Press
MSL
hPa
Rain since
9am
mm
Dir  Spd
km/h
Gust
km/h
Spd
kts
Gust
kts
18/11:50pm 13.2 4.6 8.7 74 2.3 SW 44 50 24 27 1010.6 - -
18/11:40pm 13.2 4.1 8.6 73 2.3 SW 46 54 25 29 1011.1 - -
18/11:30pm 13.4 4.4 8.9 74 2.3 SW 46 52 25 28 1011.2 - -
18/11:20pm 13.6 6.4 9.1 74 2.3 SW 37 50 20 27 1011.1 - -
18/11:10pm 13.6 7.1 9.1 74 2.3 SW 33 41 18 22 1011.1 - -
18/11:00pm 13.6 7.1 9.0 74 2.3 SW 33 39 18 21 1010.7 - -
18/10:50pm 13.7 7.2 9.1 74 2.3 SW 33 37 18 20 1010.9 - -
18/10:40pm 13.7 7.2 9.1 74 2.3 SW 33 41 18 22 1010.9 - -
18/10:30pm 13.8 5.9 9.2 74 2.3 SW 41 50 22 27 1011.1 - -
18/10:20pm 13.8 6.2 9.2 74 2.3 SW 39 44 21 24 1011.1 - -
18/10:10pm 14.0 6.8 9.3 73 2.4 SW 37 43 20 23 1010.9 - -
18/10:00pm 14.4 6.2 9.6 73 2.5 SW 43 50 23 27 1011.2 - -
18/09:50pm 15.1 10.3 10.2 72 2.6 SW 26 44 14 24 1010.3 - -
18/09:40pm 15.1 12.0 10.2 72 2.6 NW 17 28 9 15 1009.6 - -
18/09:30pm 15.0 9.0 10.1 72 2.6 N 32 37 17 20 1008.8 - -
18/09:00pm 14.8 8.1 9.8 72 2.6 N 35 41 19 22 1008.8 - -
18/08:50pm 14.8 8.1 9.7 71 2.6 N 35 39 19 21 1008.9 - -
18/08:40pm 14.7 8.3 9.5 71 2.7 N 33 37 18 20 1008.9 - -
18/08:30pm 14.7 8.5 9.4 70 2.7 NNE 32 37 17 20 1008.9 - -
18/08:20pm 14.7 9.2 9.2 69 2.8 NNE 28 33 15 18 1008.8 - -
18/08:10pm 14.7 9.2 9.1 69 2.9 NNE 28 33 15 18 1008.8 - -
18/08:00pm 14.5 8.9 8.8 68 2.9 NNE 28 33 15 18 1008.9 - -
18/07:50pm 14.2 8.1 8.4 68 2.9 NNE 30 33 16 18 1008.9 - -
18/07:40pm 14.1 7.6 8.2 67 2.9 NNE 32 33 17 18 1008.9 - -
18/07:30pm 14.1 7.4 8.2 67 2.9 NNE 33 35 18 19 1008.9 - -
18/07:20pm 14.1 7.6 8.1 67 3.0 NNE 32 35 17 19 1008.8 - -
18/07:10pm 14.0 7.8 7.8 66 3.1 NNE 30 33 16 18 1008.8 - -
18/07:00pm 14.1 8.2 7.7 65 3.2 NE 28 32 15 17 1008.9 - -
18/06:50pm 14.0 8.5 7.6 65 3.2 NE 26 30 14 16 1008.9 - -
18/06:40pm 13.9 9.1 7.4 65 3.2 NE 22 26 12 14 1008.9 - -
18/06:30pm 13.8 9.4 7.5 66 3.1 NE 20 22 11 12 1008.9 - -
18/06:20pm 13.6 9.7 7.1 65 3.2 NE 17 20 9 11 1009.0 - -
18/06:10pm 13.5 10.3 7.0 65 3.2 NE 13 17 7 9 1009.2 - -
18/05:40pm 13.4 11.3 6.8 64 3.2 E 7 9 4 5 1009.3 - -
18/05:30pm 13.0 10.9 6.6 65 3.1 E 7 11 4 6 1009.3 - -
18/05:10pm 12.7 10.7 6.3 65 3.0 ESE 6 9 3 5 1009.2 - -
18/05:00pm 12.6 10.6 6.2 65 3.0 ESE 6 7 3 4 1009.2 - -
18/04:50pm 12.5 10.5 6.2 65 3.0 ESE 6 7 3 4 1009.3 - -
18/04:40pm 12.4 10.2 6.0 65 3.0 SE 7 11 4 6 1009.2 - -
18/04:30pm 12.4 10.3 5.9 64 3.1 SE 6 11 3 6 1009.3 - -
18/04:20pm 12.3 10.6 5.8 64 3.0 SE 4 7 2 4 1009.3 - -
18/04:10pm 12.3 11.0 5.8 64 3.0 ESE 2 6 1 3 1009.4 - -
18/04:00pm 12.2 10.5 5.7 64 3.0 SE 4 7 2 4 1009.5 - -
18/03:50pm 12.2 9.9 5.7 64 3.0 SSE 7 9 4 5 1009.5 - -
18/03:40pm 12.3 10.2 5.6 63 3.1 SSE 6 9 3 5 1009.6 - -
18/03:30pm 12.3 10.5 5.4 63 3.2 SSE 4 7 2 4 1009.6 - -
18/03:20pm 12.4 10.6 5.3 62 3.3 S 4 6 2 3 1009.7 - -
18/03:10pm 12.5 10.6 5.1 60 3.4 S 4 6 2 3 1009.9 - -
18/02:20pm 13.0 11.1 5.1 58 3.7 WNW 4 7 2 4 1010.9 - -
18/02:10pm 12.9 10.6 5.0 58 3.7 WNW 6 9 3 5 1011.0 - -
18/02:00pm 13.1 10.7 5.2 58 3.7 WNW 7 11 4 6 1011.1 - -
18/01:50pm 13.3 10.9 5.3 58 3.7 WNW 7 15 4 8 1011.3 - -
18/01:00pm 13.7 10.9 5.1 56 4.0 W 9 13 5 7 1012.1 - -
18/12:10pm 14.1 9.1 4.8 53 4.3 WSW 20 24 11 13 1012.6 - -
18/11:50am 14.2 9.3 5.0 54 4.3 WSW 20 24 11 13 1012.9 - -
18/11:40am 14.4 9.5 4.9 53 4.4 WSW 20 26 11 14 1013.1 - -
18/11:30am 14.6 9.3 4.9 52 4.5 WSW 22 32 12 17 1013.3 - -
18/11:10am 14.6 8.5 4.6 51 4.6 WSW 26 30 14 16 1013.4 - -
18/10:00am 15.1 8.0 5.4 52 4.6 WSW 32 35 17 19 1013.7 - -
18/09:10am 15.3 7.3 5.6 52 4.6 WSW 37 41 20 22 1013.7 - -
18/09:00am 15.2 7.6 5.6 52 4.6 WSW 35 44 19 24 1013.8 - -
18/08:40am 15.2 7.6 5.7 53 4.5 WSW 35 41 19 22 1013.8 - -
18/05:10am 12.6 3.0 8.1 74 2.2 WSW 48 54 26 29 1011.8 - -
18/04:50am 12.8 3.3 8.3 74 2.2 WSW 48 56 26 30 1011.7 - -
18/04:20am 12.9 4.7 8.3 73 2.3 WSW 41 48 22 26 1011.7 - -
18/04:10am 12.8 3.2 8.1 73 2.3 WSW 48 54 26 29 1011.5 - -
18/04:00am 13.0 3.9 8.3 73 2.3 WSW 46 54 25 29 1011.6 - -
18/03:50am 13.1 4.6 8.4 73 2.3 WSW 43 54 23 29 1011.8 - -
18/03:40am 13.0 4.4 8.2 72 2.4 WSW 43 48 23 26 1011.7 - -
18/03:30am 12.9 4.1 8.0 72 2.4 WSW 44 50 24 27 1011.6 - -
18/03:20am 13.0 4.4 8.1 72 2.4 WSW 43 48 23 26 1011.6 - -
18/03:10am 12.9 4.7 8.0 72 2.4 WSW 41 52 22 28 1011.7 - -
18/03:00am 12.9 4.3 8.0 72 2.4 WSW 43 52 23 28 1011.8 - -
18/02:40am 12.9 3.7 8.0 72 2.4 WSW 46 52 25 28 1011.7 - -
18/02:30am 12.9 4.1 8.0 72 2.4 WSW 44 52 24 28 1011.8 - -
18/02:20am 12.9 3.7 8.1 72 2.4 WSW 46 54 25 29 1011.8 - -
18/02:10am 13.0 4.2 8.2 72 2.4 WSW 44 52 24 28 1011.9 - -
18/02:00am 13.1 4.5 8.3 72 2.4 WSW 43 50 23 27 1012.1 - -
18/01:50am 13.0 4.8 8.1 72 2.4 WSW 41 48 22 26 1012.2 - -
18/01:40am 12.9 3.7 8.1 72 2.4 SW 46 54 25 29 1012.2 - -
18/01:30am 12.9 4.1 8.1 72 2.4 WSW 44 54 24 29 1012.2 - -
18/01:20am 12.9 2.9 8.0 72 2.4 SW 50 57 27 31 1012.3 - -
18/01:10am 13.0 3.4 8.1 72 2.4 SW 48 56 26 30 1012.5 - -
18/01:00am 12.9 3.3 7.9 71 2.5 WSW 48 57 26 31 1012.3 - -
18/12:50am 12.9 2.2 7.9 71 2.5 WSW 54 61 29 33 1012.2 - -
18/12:40am 12.9 2.6 8.0 72 2.4 SW 52 63 28 34 1012.2 - -
18/12:30am 12.8 1.7 7.9 72 2.4 WSW 56 63 30 34 1012.0 - -
18/12:20am 12.9 2.6 8.0 72 2.4 WSW 52 63 28 34 1012.1 - -
18/12:10am 12.8 2.1 8.0 72 2.4 SW 54 59 29 32 1012.1 - -
18/12:00am 12.9 2.2 8.2 73 2.3 WSW 54 61 29 33 1011.9 - -
 
Date/Time
EDT
Temp
°C
App
Temp
°C
Dew
Point
°C
Rel
Hum
%
Delta-T
°C
Wind Press
QNH
hPa
Press
MSL
hPa
Rain since
9am
mm
Dir  Spd
km/h
Gust
km/h
Spd
kts
Gust
kts
17/11:50pm 12.9 2.6 8.2 73 2.3 SW 52 63 28 34 1012.0 - -
17/11:40pm 12.9 2.6 8.2 73 2.3 SW 52 63 28 34 1011.8 - -
17/11:30pm 12.9 3.0 8.1 72 2.4 WSW 50 57 27 31 1011.6 - -
17/11:20pm 12.8 2.8 7.9 72 2.4 WSW 50 57 27 31 1011.6 - -
17/11:10pm 12.7 2.3 7.8 72 2.4 SW 52 61 28 33 1011.5 - -
17/11:00pm 12.6 1.8 7.7 72 2.4 SW 54 59 29 32 1011.5 - -
17/10:50pm 12.6 2.5 7.6 71 2.4 SW 50 59 27 32 1011.5 - -
17/10:40pm 12.6 2.2 7.7 72 2.4 SW 52 63 28 34 1011.3 - -
17/10:30pm 12.8 2.4 7.9 72 2.4 SW 52 59 28 32 1011.3 - -
17/09:50pm 12.6 1.4 7.7 72 2.4 SW 56 63 30 34 1010.4 - -
17/09:20pm 12.6 2.2 7.8 72 2.4 SW 52 59 28 32 1009.9 - -
17/09:10pm 12.5 1.7 7.7 72 2.3 SW 54 67 29 36 1009.8 - -
17/09:00pm 12.5 1.3 7.7 72 2.3 SW 56 65 30 35 1009.4 - -
17/08:40pm 12.6 1.5 7.8 72 2.4 WSW 56 63 30 34 1009.0 - -
17/08:20pm 12.6 1.5 7.9 73 2.3 WSW 56 63 30 34 1008.6 - -
17/08:10pm 12.6 1.9 7.9 73 2.3 SW 54 63 29 34 1008.6 - -
17/08:00pm 12.6 1.9 8.0 73 2.3 WSW 54 65 29 35 1008.4 - -
17/07:50pm 12.6 1.5 7.9 73 2.3 WSW 56 65 30 35 1008.2 - -
17/07:30pm 12.3 2.2 7.6 73 2.3 WSW 50 61 27 33 1007.9 - -
17/07:20pm 12.4 1.6 7.6 72 2.3 WSW 54 63 29 34 1007.6 - -
17/07:10pm 12.5 1.1 7.7 72 2.3 WSW 57 65 31 35 1007.3 - -
17/07:00pm 12.5 1.1 7.7 72 2.3 WSW 57 67 31 36 1007.2 - -
17/06:50pm 12.4 1.0 7.6 72 2.3 WSW 57 70 31 38 1007.0 - -
17/06:40pm 12.3 2.2 7.5 72 2.3 WSW 50 61 27 33 1007.1 - -
17/06:20pm 12.4 2.3 7.5 72 2.4 WSW 50 63 27 34 1006.9 - -
17/06:10pm 12.4 1.9 7.4 71 2.4 WSW 52 59 28 32 1006.7 - -
17/06:00pm 12.3 2.2 7.3 71 2.4 W 50 59 27 32 1006.8 - -
17/05:50pm 12.3 2.2 7.3 71 2.4 WSW 50 59 27 32 1006.6 - -
17/05:40pm 12.4 3.0 7.2 70 2.5 WSW 46 59 25 32 1006.6 - -
17/05:30pm 12.2 1.6 7.1 71 2.5 WSW 52 59 28 32 1006.3 - -
17/05:20pm 12.0 0.6 6.9 71 2.4 WSW 56 65 30 35 1006.1 - -
17/05:00pm 11.8 1.2 7.0 72 2.3 WSW 52 65 28 35 1006.1 - -
17/04:50pm 11.3 0.6 6.3 71 2.3 WSW 52 59 28 32 1006.2 - -
17/04:40pm 11.7 -1.1 6.3 69 2.5 WSW 63 76 34 41 1006.0 - -
17/04:30pm 12.5 0.0 6.0 64 3.1 W 61 76 33 41 1006.0 - -
17/04:20pm 12.9 2.1 6.1 63 3.2 WSW 52 59 28 32 1005.7 - -
17/04:10pm 13.0 2.6 6.2 63 3.2 WSW 50 61 27 33 1005.7 - -
17/04:00pm 12.9 1.7 5.9 62 3.3 WSW 54 65 29 35 1005.5 - -
17/03:50pm 12.9 2.2 6.3 64 3.1 WSW 52 63 28 34 1005.5 - -
17/03:30pm 12.9 1.5 6.5 65 3.1 WSW 56 65 30 35 1005.2 - -
17/03:20pm 12.8 0.7 6.2 64 3.1 WSW 59 72 32 39 1005.0 - -
17/03:10pm 12.6 0.9 6.2 65 3.0 WSW 57 72 31 39 1005.0 - -
17/02:50pm 12.7 1.3 6.6 66 2.9 WSW 56 65 30 35 1005.3 - -
17/02:40pm 12.2 3.0 6.5 68 2.7 WSW 44 57 24 31 1005.5 - -
17/02:30pm 12.1 2.9 6.2 67 2.8 WSW 44 59 24 32 1005.7 - -
17/02:10pm 12.9 2.6 6.5 65 3.1 SW 50 57 27 31 1005.6 - -

Other formats

Comma delimited format used in spreadsheet applications
http://www.bom.gov.au/fwo/IDV60801/IDV60801.55039.axf

JavaScript Object Notation format (JSON) in row-major order
http://www.bom.gov.au/fwo/IDV60801/IDV60801.55039.json

Data quality

Most of these data are generated automatically and are frequently updated. Quality checks on data are not normally performed. It is possible for incorrect values to appear. Refer to information at About Latest Weather Observations and please check the disclaimer before using these data.